Time;durP1;ratioP1;P1;durP2;ratioP2;P2;SDS_P1;SDS_P2;PMS_P1;PMS_P2;Temp;Humidity;BMP_temperature;BMP_pressure;BME280_temperature;BME280_humidity;BME280_pressure;Samples;Min_cycle;Max_cycle;Signal;HPM_P1;HPM_P2
2022/04/12 00:01:17;;;;;;;0.83;0.83;;;8.70;81.40;;;;;;5032843;28;20490;-80
2022/04/12 00:03:43;;;;;;;0.97;0.37;;;8.70;81.70;;;;;;5033078;28;20447;-80
2022/04/12 00:06:11;;;;;;;0.60;0.60;;;8.70;82.00;;;;;;5032811;28;20482;-80
2022/04/12 00:08:38;;;;;;;1.40;0.30;;;8.60;82.40;;;;;;5032856;28;20450;-79
2022/04/12 00:11:05;;;;;;;0.83;0.83;;;8.60;83.60;;;;;;5033089;28;20461;-79
2022/04/12 00:13:31;;;;;;;0.50;0.50;;;8.60;85.00;;;;;;5033066;28;20446;-80
2022/04/12 00:15:58;;;;;;;2.43;0.60;;;8.50;85.60;;;;;;5032522;28;20946;-80
2022/04/12 00:21:10;;;;;;;0.30;0.30;;;8.40;87.80;;;;;;5036522;28;20449;-81
2022/04/12 00:23:37;;;;;;;0.30;0.30;;;8.30;88.40;;;;;;5036039;28;20442;-80
2022/04/12 00:26:04;;;;;;;0.30;0.30;;;8.20;89.10;;;;;;5036213;28;20478;-79
2022/04/12 00:28:31;;;;;;;0.40;0.30;;;8.20;90.30;;;;;;5036285;28;20457;-80
2022/04/12 00:30:57;;;;;;;0.70;0.47;;;8.10;90.70;;;;;;5035848;28;20836;-80
2022/04/12 00:33:24;;;;;;;0.40;0.40;;;8.00;91.00;;;;;;5036483;28;20447;-80
2022/04/12 00:35:51;;;;;;;0.40;0.30;;;7.90;91.60;;;;;;5035805;28;20954;-80
2022/04/12 00:38:22;;;;;;;0.60;0.60;;;7.90;92.50;;;;;;5035764;28;20450;-80
2022/04/12 00:40:49;;;;;;;0.40;0.33;;;7.80;92.80;;;;;;5036183;28;20466;-80
2022/04/12 00:43:17;;;;;;;0.80;0.43;;;7.80;92.70;;;;;;5035712;28;20543;-80
2022/04/12 00:45:44;;;;;;;0.40;0.40;;;7.70;93.40;;;;;;5035604;28;20469;-80
2022/04/12 00:48:11;;;;;;;0.30;0.30;;;7.60;93.60;;;;;;5035940;28;20450;-79
2022/04/12 00:50:38;;;;;;;0.33;0.33;;;7.60;94.30;;;;;;5035842;28;20470;-82
2022/04/12 00:53:07;;;;;;;0.50;0.50;;;7.60;95.40;;;;;;5035527;28;20926;-81
2022/04/12 00:55:36;;;;;;;0.40;0.30;;;7.60;96.00;;;;;;5035819;28;20492;-79
2022/04/12 00:58:06;;;;;;;0.40;0.40;;;7.50;96.20;;;;;;5035721;28;20465;-79
2022/04/12 01:00:33;;;;;;;0.40;0.30;;;7.50;96.30;;;;;;5036035;28;20474;-79
2022/04/12 01:03:00;;;;;;;0.40;0.30;;;7.40;97.10;;;;;;5035495;28;20446;-79
2022/04/12 01:05:27;;;;;;;1.77;0.70;;;7.40;97.50;;;;;;5035576;28;20805;-79
2022/04/12 01:07:54;;;;;;;0.50;0.50;;;7.40;98.40;;;;;;5035566;28;20544;-79
2022/04/12 01:10:22;;;;;;;0.30;0.30;;;7.30;99.20;;;;;;5035457;28;20467;-79
2022/04/12 01:12:52;;;;;;;0.40;0.40;;;7.30;99.90;;;;;;5035516;28;20525;-80
2022/04/12 01:15:20;;;;;;;0.30;0.30;;;7.30;99.90;;;;;;5035455;28;20443;-80
2022/04/12 01:17:48;;;;;;;0.30;0.20;;;7.20;99.90;;;;;;5035415;28;20447;-79
2022/04/12 01:20:17;;;;;;;1.53;1.43;;;7.20;99.90;;;;;;5035295;28;20463;-79
2022/04/12 01:22:50;;;;;;;0.30;0.30;;;7.20;99.90;;;;;;5034979;28;20462;-79
2022/04/12 01:25:19;;;;;;;0.40;0.40;;;7.20;99.90;;;;;;5035284;28;20802;-80
2022/04/12 01:27:46;;;;;;;0.50;0.30;;;7.30;99.90;;;;;;5034439;28;20973;-80
2022/04/12 01:30:13;;;;;;;0.73;0.60;;;7.20;99.90;;;;;;5034272;28;20985;-79
2022/04/12 01:32:40;;;;;;;0.97;0.50;;;7.20;99.90;;;;;;5035434;28;20461;-79
2022/04/12 01:35:08;;;;;;;0.30;0.30;;;7.20;99.90;;;;;;5035071;28;20461;-79
2022/04/12 01:37:35;;;;;;;0.70;0.40;;;7.20;99.90;;;;;;5035015;28;20443;-79
2022/04/12 01:40:02;;;;;;;0.30;0.30;;;7.10;99.90;;;;;;5034584;28;20806;-80
2022/04/12 01:42:30;;;;;;;0.30;0.30;;;7.10;99.90;;;;;;5034920;28;20457;-79
2022/04/12 01:44:57;;;;;;;0.30;0.30;;;7.10;99.90;;;;;;5034661;28;20485;-79
2022/04/12 01:47:23;;;;;;;0.37;0.30;;;7.00;99.90;;;;;;5034485;28;20483;-79
2022/04/12 01:49:50;;;;;;;0.57;0.43;;;7.00;99.90;;;;;;5034690;28;20462;-79
2022/04/12 01:52:17;;;;;;;0.40;0.30;;;7.00;99.90;;;;;;5034700;28;20451;-80
2022/04/12 01:54:44;;;;;;;0.30;0.30;;;7.00;99.90;;;;;;5034699;28;20450;-79
2022/04/12 01:57:10;;;;;;;0.40;0.40;;;7.00;99.90;;;;;;5034617;28;20465;-79
2022/04/12 01:59:39;;;;;;;0.70;0.70;;;7.00;99.90;;;;;;5034573;28;20453;-79
2022/04/12 02:02:06;;;;;;;0.40;0.40;;;7.00;99.90;;;;;;5034451;28;20540;-79
2022/04/12 02:04:32;;;;;;;0.30;0.30;;;7.00;99.90;;;;;;5034921;28;20805;-79
2022/04/12 02:06:59;;;;;;;1.00;0.40;;;7.10;99.90;;;;;;5034128;28;20478;-79
2022/04/12 02:09:26;;;;;;;0.83;0.83;;;7.10;99.90;;;;;;5034410;28;20459;-79
2022/04/12 02:11:55;;;;;;;0.40;0.33;;;7.10;99.90;;;;;;5034281;28;20462;-79
2022/04/12 02:14:22;;;;;;;0.30;0.30;;;7.20;99.90;;;;;;5034305;28;20446;-80
2022/04/12 02:16:50;;;;;;;0.30;0.30;;;7.20;99.90;;;;;;5034208;28;20442;-81
2022/04/12 02:19:16;;;;;;;0.50;0.50;;;7.20;99.90;;;;;;5034218;28;20454;-80
2022/04/12 02:21:43;;;;;;;0.57;0.50;;;7.20;99.90;;;;;;5034065;28;20474;-79
2022/04/12 02:24:10;;;;;;;0.40;0.30;;;7.10;99.90;;;;;;5034158;28;20534;-79
2022/04/12 02:26:37;;;;;;;1.27;1.27;;;7.10;99.90;;;;;;5033989;28;20487;-79
2022/04/12 02:29:03;;;;;;;0.37;0.30;;;7.10;99.90;;;;;;5033781;28;20435;-79
2022/04/12 02:31:31;;;;;;;0.50;0.50;;;7.10;99.90;;;;;;5033911;28;20475;-80
2022/04/12 02:33:59;;;;;;;0.30;0.30;;;7.10;99.90;;;;;;5033643;28;20934;-80
2022/04/12 02:36:26;;;;;;;0.57;0.57;;;7.10;99.90;;;;;;5033878;28;20445;-79
2022/04/12 02:38:53;;;;;;;0.53;0.50;;;7.20;99.90;;;;;;5033524;28;20976;-79
2022/04/12 02:41:19;;;;;;;0.30;0.20;;;7.20;99.90;;;;;;5033543;28;20471;-80
2022/04/12 02:43:46;;;;;;;0.40;0.40;;;7.20;99.90;;;;;;5033399;28;20845;-80
2022/04/12 02:46:14;;;;;;;2.70;0.70;;;7.10;99.90;;;;;;5033664;28;20478;-80
2022/04/12 02:48:41;;;;;;;0.37;0.37;;;7.10;99.90;;;;;;5033719;28;20458;-79
2022/04/12 02:51:09;;;;;;;0.40;0.40;;;7.00;99.90;;;;;;5033620;28;20470;-79
2022/04/12 02:53:35;;;;;;;0.60;0.47;;;7.00;99.90;;;;;;5033545;28;20465;-80
2022/04/12 02:56:02;;;;;;;0.60;0.43;;;7.00;99.90;;;;;;5033601;28;20454;-79
2022/04/12 02:58:29;;;;;;;0.40;0.30;;;7.00;99.90;;;;;;5033309;28;20969;-79
2022/04/12 03:00:56;;;;;;;0.40;0.30;;;7.00;99.90;;;;;;5033467;28;20474;-79
2022/04/12 03:03:23;;;;;;;0.40;0.40;;;7.00;99.90;;;;;;5033510;28;20458;-79
2022/04/12 03:05:49;;;;;;;0.50;0.50;;;7.00;99.90;;;;;;5033454;28;20453;-79
2022/04/12 03:08:17;;;;;;;0.33;0.30;;;7.00;99.90;;;;;;5033367;28;20486;-79
2022/04/12 03:10:44;;;;;;;0.40;0.30;;;7.10;99.90;;;;;;5033418;28;20470;-79
2022/04/12 03:13:11;;;;;;;0.30;0.30;;;7.20;99.90;;;;;;5033639;28;20446;-79
2022/04/12 03:15:38;;;;;;;3.40;0.40;;;7.20;99.90;;;;;;5033076;28;20454;-79
2022/04/12 03:18:05;;;;;;;1.00;0.30;;;7.20;99.90;;;;;;5033340;28;20454;-80
2022/04/12 03:20:32;;;;;;;0.40;0.40;;;7.20;99.90;;;;;;5033252;28;20466;-79
2022/04/12 03:22:59;;;;;;;0.30;0.30;;;7.10;99.90;;;;;;5033291;28;20454;-80
2022/04/12 03:25:27;;;;;;;0.40;0.40;;;7.10;99.90;;;;;;5033006;28;20796;-79
2022/04/12 03:27:54;;;;;;;0.30;0.30;;;7.10;99.90;;;;;;5033459;28;20474;-80
2022/04/12 03:30:21;;;;;;;0.30;0.30;;;7.10;99.90;;;;;;5033177;28;20466;-79
2022/04/12 03:32:47;;;;;;;0.30;0.30;;;7.00;99.90;;;;;;5033097;28;20446;-80
2022/04/12 03:35:14;;;;;;;3.40;0.47;;;7.00;99.90;;;;;;5033151;28;20446;-79
2022/04/12 03:37:41;;;;;;;0.30;0.27;;;6.90;99.90;;;;;;5032875;28;20934;-79
2022/04/12 03:40:09;;;;;;;0.30;0.30;;;6.90;99.90;;;;;;5033123;28;20462;-79
2022/04/12 03:42:37;;;;;;;0.40;0.40;;;6.80;99.90;;;;;;5033142;28;20451;-79
2022/04/12 03:45:04;;;;;;;0.30;0.30;;;6.80;99.90;;;;;;5032776;28;20950;-79
2022/04/12 03:47:31;;;;;;;0.40;0.40;;;6.80;99.90;;;;;;5032743;28;21136;-79
2022/04/12 03:49:58;;;;;;;1.17;0.77;;;6.90;99.90;;;;;;5033001;28;20450;-79
2022/04/12 03:52:24;;;;;;;0.40;0.30;;;6.90;99.90;;;;;;5034695;28;20953;-79
2022/04/12 03:54:51;;;;;;;0.40;0.37;;;6.90;99.90;;;;;;5036865;28;20439;-79
2022/04/12 03:57:18;;;;;;;0.40;0.40;;;6.80;99.90;;;;;;5036931;28;20453;-79
2022/04/12 03:59:46;;;;;;;0.77;0.40;;;6.80;99.90;;;;;;5036892;28;20450;-79
2022/04/12 04:02:13;;;;;;;0.30;0.27;;;6.70;99.90;;;;;;5036485;28;20549;-79
2022/04/12 04:04:39;;;;;;;0.40;0.30;;;6.70;99.90;;;;;;5036780;28;20450;-79
2022/04/12 04:07:06;;;;;;;0.30;0.20;;;6.60;99.90;;;;;;5036696;28;20491;-79
2022/04/12 04:09:33;;;;;;;0.30;0.30;;;6.50;99.90;;;;;;5036962;28;20454;-78
2022/04/12 04:12:03;;;;;;;1.23;1.23;;;6.50;99.90;;;;;;5036650;28;20516;-79
2022/04/12 04:14:31;;;;;;;0.40;0.40;;;6.50;99.90;;;;;;5036487;28;20465;-79
2022/04/12 04:17:00;;;;;;;0.30;0.30;;;6.50;99.90;;;;;;5036618;28;20447;-79
2022/04/12 04:19:27;;;;;;;0.40;0.40;;;6.50;99.90;;;;;;5036617;28;20466;-78
2022/04/12 04:21:55;;;;;;;0.50;0.40;;;6.50;99.90;;;;;;5036166;28;20473;-79
2022/04/12 04:24:22;;;;;;;0.40;0.30;;;6.50;99.90;;;;;;5036193;28;21009;-79
2022/04/12 04:26:54;;;;;;;0.30;0.30;;;6.50;99.90;;;;;;5036132;28;20532;-79
2022/04/12 04:29:22;;;;;;;0.83;0.83;;;6.40;99.90;;;;;;5036513;28;20438;-79
2022/04/12 04:31:48;;;;;;;0.40;0.30;;;6.40;99.90;;;;;;5036287;28;20470;-79
2022/04/12 04:34:17;;;;;;;0.90;0.90;;;6.40;99.90;;;;;;5036236;28;20451;-78
2022/04/12 04:36:43;;;;;;;0.30;0.20;;;6.40;99.90;;;;;;5036094;28;20450;-79
2022/04/12 04:39:10;;;;;;;0.30;0.30;;;6.30;99.90;;;;;;5036274;28;20439;-79
2022/04/12 04:41:37;;;;;;;0.70;0.50;;;6.30;99.90;;;;;;5035968;28;20470;-79
2022/04/12 04:44:04;;;;;;;0.70;0.70;;;6.30;99.90;;;;;;5036051;28;20482;-79
2022/04/12 04:46:31;;;;;;;0.30;0.30;;;6.30;99.90;;;;;;5036302;28;20455;-79
2022/04/12 04:48:58;;;;;;;0.30;0.23;;;6.40;99.90;;;;;;5036132;28;20455;-79
2022/04/12 04:51:26;;;;;;;0.30;0.30;;;6.30;99.90;;;;;;5035913;28;20466;-80
2022/04/12 04:53:58;;;;;;;0.33;0.33;;;6.40;99.90;;;;;;5036176;28;20454;-79
2022/04/12 04:56:25;;;;;;;0.80;0.40;;;6.30;99.90;;;;;;5035893;28;20851;-79
2022/04/12 04:58:52;;;;;;;0.37;0.30;;;6.30;99.90;;;;;;5035524;28;20968;-79
2022/04/12 05:01:20;;;;;;;0.40;0.30;;;6.30;99.90;;;;;;5035817;28;20451;-79
2022/04/12 05:03:47;;;;;;;0.30;0.30;;;6.30;99.90;;;;;;5035769;28;20450;-76
2022/04/12 05:06:14;;;;;;;1.50;1.40;;;6.30;99.90;;;;;;5035442;28;20451;-76
2022/04/12 05:08:42;;;;;;;0.30;0.30;;;6.30;99.90;;;;;;5035666;28;20486;-77
2022/04/12 05:11:08;;;;;;;0.30;0.30;;;6.40;99.90;;;;;;5035535;28;20828;-77
2022/04/12 05:13:35;;;;;;;3.23;0.70;;;6.50;99.90;;;;;;5035594;28;20450;-77
2022/04/12 05:16:02;;;;;;;0.30;0.30;;;6.60;99.90;;;;;;5035183;28;20808;-77
2022/04/12 05:18:29;;;;;;;0.30;0.20;;;6.70;99.90;;;;;;5036214;28;20789;-77
2022/04/12 05:20:55;;;;;;;0.30;0.30;;;6.80;99.90;;;;;;5035287;28;20466;-76
2022/04/12 05:23:22;;;;;;;0.30;0.30;;;6.80;99.90;;;;;;5035274;28;20461;-77
2022/04/12 05:25:53;;;;;;;0.40;0.30;;;6.90;99.90;;;;;;5034927;28;20454;-78
2022/04/12 05:28:20;;;;;;;0.30;0.30;;;7.00;99.90;;;;;;5035240;28;20471;-77
2022/04/12 05:30:47;;;;;;;0.73;0.40;;;7.10;99.90;;;;;;5035092;28;20477;-77
2022/04/12 05:33:14;;;;;;;1.43;0.47;;;7.20;99.90;;;;;;5035148;28;20805;-77
2022/04/12 05:35:41;;;;;;;1.23;1.23;;;7.20;99.90;;;;;;5034746;28;20453;-77
2022/04/12 05:38:08;;;;;;;0.30;0.30;;;7.30;99.90;;;;;;5035056;28;20442;-77
2022/04/12 05:40:35;;;;;;;0.60;0.30;;;7.30;99.90;;;;;;5034617;28;20474;-77
2022/04/12 05:43:03;;;;;;;0.30;0.30;;;7.40;99.90;;;;;;5034581;28;21001;-77
2022/04/12 05:45:30;;;;;;;0.30;0.30;;;7.50;99.90;;;;;;5034920;28;20427;-77
2022/04/12 05:47:57;;;;;;;0.30;0.30;;;7.50;99.90;;;;;;5034438;28;21009;-77
2022/04/12 05:50:25;;;;;;;0.30;0.30;;;7.60;99.90;;;;;;5035533;28;20477;-78
2022/04/12 05:52:52;;;;;;;0.30;0.30;;;7.60;99.90;;;;;;5034747;28;20450;-77
2022/04/12 05:55:21;;;;;;;0.30;0.30;;;7.70;99.90;;;;;;5034560;28;20461;-78
2022/04/12 05:57:49;;;;;;;0.40;0.33;;;7.80;99.90;;;;;;5034642;28;20447;-77
2022/04/12 06:00:19;;;;;;;0.30;0.30;;;7.90;99.90;;;;;;5034553;28;20824;-77
2022/04/12 06:02:46;;;;;;;0.30;0.30;;;8.00;99.90;;;;;;5034569;28;20907;-77
2022/04/12 06:05:13;;;;;;;0.50;0.47;;;8.10;99.90;;;;;;5034477;28;20457;-77
2022/04/12 06:07:41;;;;;;;0.40;0.40;;;8.20;99.90;;;;;;5034332;28;20557;-77
2022/04/12 06:10:09;;;;;;;0.60;0.60;;;8.30;99.90;;;;;;5033990;28;20458;-77
2022/04/12 06:12:36;;;;;;;0.40;0.40;;;8.50;99.90;;;;;;5034476;28;20443;-77
2022/04/12 06:15:03;;;;;;;0.30;0.30;;;8.60;99.90;;;;;;5034069;28;20434;-77
2022/04/12 06:17:32;;;;;;;0.40;0.40;;;8.80;99.90;;;;;;5034240;28;20469;-78
2022/04/12 06:20:04;;;;;;;0.40;0.30;;;8.90;99.90;;;;;;5034107;28;20934;-77
2022/04/12 06:22:31;;;;;;;0.70;0.70;;;9.10;99.90;;;;;;5034294;28;20439;-77
2022/04/12 06:24:58;;;;;;;0.30;0.30;;;9.30;99.90;;;;;;5033800;28;20938;-77
2022/04/12 06:27:32;;;;;;;0.63;0.30;;;9.50;99.90;;;;;;5033685;28;20486;-77
2022/04/12 06:30:03;;;;;;;0.60;0.60;;;9.90;99.90;;;;;;5033765;28;20449;-77
2022/04/12 06:32:30;;;;;;;0.70;0.33;;;10.40;99.90;;;;;;5033901;28;20435;-77
2022/04/12 06:34:58;;;;;;;0.50;0.50;;;10.80;99.90;;;;;;5033630;28;20453;-77
2022/04/12 06:37:25;;;;;;;1.07;0.40;;;11.20;99.90;;;;;;5033833;28;20457;-77
2022/04/12 06:39:52;;;;;;;1.03;0.40;;;11.80;99.90;;;;;;5033774;28;20477;-77
2022/04/12 06:42:19;;;;;;;0.40;0.33;;;12.40;99.90;;;;;;5033942;28;20772;-77
2022/04/12 06:44:46;;;;;;;0.70;0.60;;;12.90;98.80;;;;;;5033352;28;20985;-77
2022/04/12 06:47:15;;;;;;;0.40;0.30;;;13.30;98.00;;;;;;5033715;28;20447;-77
2022/04/12 06:49:43;;;;;;;0.53;0.50;;;13.40;95.70;;;;;;5033677;28;20458;-77
2022/04/12 06:52:12;;;;;;;0.87;0.87;;;13.70;94.80;;;;;;5033288;28;20993;-77
2022/04/12 06:54:39;;;;;;;0.40;0.40;;;13.80;94.40;;;;;;5033694;28;20457;-77
2022/04/12 06:57:06;;;;;;;0.80;0.57;;;14.10;93.30;;;;;;5033656;28;20431;-77
2022/04/12 06:59:33;;;;;;;0.50;0.50;;;14.40;93.00;;;;;;5033628;28;20434;-77
2022/04/12 07:02:01;;;;;;;0.30;0.30;;;14.80;91.00;;;;;;5033462;28;20462;-77
2022/04/12 07:04:28;;;;;;;1.83;0.50;;;15.10;89.60;;;;;;5033112;28;20927;-77
2022/04/12 07:06:56;;;;;;;2.67;0.60;;;15.50;87.50;;;;;;5033416;28;20458;-77
2022/04/12 07:09:24;;;;;;;0.60;0.30;;;16.00;84.80;;;;;;5033568;28;20835;-77
2022/04/12 07:11:51;;;;;;;0.50;0.50;;;16.50;80.00;;;;;;5033208;28;20833;-77
2022/04/12 07:14:18;;;;;;;0.40;0.40;;;17.00;79.10;;;;;;5033115;28;20461;-77
2022/04/12 07:16:45;;;;;;;0.63;0.47;;;17.50;75.70;;;;;;5033377;28;20455;-77
2022/04/12 07:19:11;;;;;;;0.63;0.63;;;17.80;71.10;;;;;;5033314;28;20450;-78
2022/04/12 07:21:39;;;;;;;1.43;0.73;;;18.00;67.60;;;;;;5032906;28;20985;-77
2022/04/12 07:24:07;;;;;;;0.73;0.60;;;18.00;67.30;;;;;;5033302;28;20883;-77
2022/04/12 07:26:36;;;;;;;1.67;0.70;;;18.00;66.20;;;;;;5033859;28;20461;-77
2022/04/12 07:29:04;;;;;;;0.63;0.63;;;18.10;67.20;;;;;;5037372;28;20477;-77
2022/04/12 07:31:30;;;;;;;3.60;0.80;;;18.20;65.90;;;;;;5037004;28;20477;-77
2022/04/12 07:33:57;;;;;;;0.60;0.50;;;18.40;66.30;;;;;;5037603;28;20453;-77
2022/04/12 07:36:24;;;;;;;0.60;0.60;;;18.70;65.00;;;;;;5037299;28;20453;-77
2022/04/12 07:38:51;;;;;;;1.00;1.00;;;19.10;64.80;;;;;;5037258;28;20446;-77
2022/04/12 07:41:19;;;;;;;0.60;0.50;;;19.30;62.00;;;;;;5037128;28;20899;-78
2022/04/12 07:43:49;;;;;;;0.90;0.90;;;19.40;62.00;;;;;;5036856;28;20488;-78
2022/04/12 07:46:18;;;;;;;1.63;0.87;;;19.40;61.00;;;;;;5037127;28;20458;-77
2022/04/12 07:48:45;;;;;;;0.80;0.63;;;19.50;61.00;;;;;;5036756;28;20466;-78
2022/04/12 07:51:12;;;;;;;1.13;0.87;;;19.40;60.30;;;;;;5037038;28;20461;-77
2022/04/12 07:53:39;;;;;;;0.87;0.70;;;19.40;59.90;;;;;;5036699;28;20439;-77
2022/04/12 07:56:06;;;;;;;1.53;0.80;;;19.70;59.60;;;;;;5036862;28;20458;-77
2022/04/12 07:58:33;;;;;;;0.60;0.60;;;20.00;59.00;;;;;;5036666;28;20902;-77
2022/04/12 08:01:01;;;;;;;0.60;0.60;;;20.30;58.60;;;;;;5037435;28;20474;-77
2022/04/12 08:03:27;;;;;;;1.10;0.70;;;20.80;58.80;;;;;;5036788;28;20452;-77
2022/04/12 08:05:54;;;;;;;3.63;0.80;;;21.20;58.50;;;;;;5036936;28;20219;-77
2022/04/12 08:08:21;;;;;;;2.05;1.00;;;21.50;56.50;;;;;;5036582;28;20223;-77
2022/04/12 08:10:48;;;;;;;2.30;0.63;;;21.70;54.30;;;;;;5036516;28;20231;-77
2022/04/12 08:13:15;;;;;;;0.63;0.60;;;21.60;52.10;;;;;;5036572;28;20210;-77
2022/04/12 08:15:42;;;;;;;0.88;0.70;;;21.40;52.40;;;;;;5036807;28;20194;-77
2022/04/12 08:18:10;;;;;;;1.08;0.52;;;21.40;53.10;;;;;;5036723;28;20226;-77
2022/04/12 08:20:36;;;;;;;0.88;0.85;;;21.20;53.70;;;;;;5036004;28;20219;-77
2022/04/12 08:23:03;;;;;;;0.98;0.88;;;20.90;54.00;;;;;;5036165;28;20198;-77
2022/04/12 08:25:30;;;;;;;0.60;0.60;;;20.70;53.50;;;;;;5036191;28;20194;-77
2022/04/12 08:27:57;;;;;;;0.90;0.90;;;20.60;54.20;;;;;;5036297;28;20219;-77
2022/04/12 08:30:24;;;;;;;0.50;0.50;;;20.50;55.10;;;;;;5036182;28;20227;-77
2022/04/12 08:32:51;;;;;;;1.90;0.70;;;20.40;54.70;;;;;;5036297;28;20199;-77
2022/04/12 08:35:19;;;;;;;0.50;0.50;;;20.40;55.00;;;;;;5035903;28;20210;-77
2022/04/12 08:37:46;;;;;;;0.80;0.70;;;20.60;55.40;;;;;;5035796;28;20195;-77
2022/04/12 08:40:14;;;;;;;2.47;0.85;;;20.80;55.20;;;;;;5036044;28;20219;-77
2022/04/12 08:42:42;;;;;;;1.42;1.00;;;20.90;55.30;;;;;;5035643;28;20207;-78
2022/04/12 08:45:09;;;;;;;1.40;0.70;;;21.10;55.80;;;;;;5036203;28;20198;-77
2022/04/12 08:47:36;;;;;;;0.65;0.60;;;21.40;54.50;;;;;;5035943;28;20238;-77
2022/04/12 08:50:05;;;;;;;0.95;0.80;;;22.20;54.00;;;;;;5035753;28;20231;-77
2022/04/12 08:52:34;;;;;;;0.68;0.60;;;23.00;51.90;;;;;;5035576;28;20191;-78
2022/04/12 08:55:01;;;;;;;0.88;0.60;;;23.50;51.60;;;;;;5035794;28;20577;-79
2022/04/12 08:57:28;;;;;;;0.70;0.70;;;23.90;50.00;;;;;;5035601;28;20666;-79
2022/04/12 08:59:55;;;;;;;0.95;0.60;;;23.80;49.80;;;;;;5035582;28;20207;-79
2022/04/12 09:02:23;;;;;;;0.65;0.65;;;23.70;49.70;;;;;;5035767;28;20188;-80
2022/04/12 09:04:50;;;;;;;0.80;0.60;;;23.30;49.40;;;;;;5035588;28;20209;-79
2022/04/12 09:07:17;;;;;;;0.60;0.60;;;23.00;51.20;;;;;;5035819;28;20210;-79
2022/04/12 09:09:45;;;;;;;0.70;0.70;;;22.80;51.10;;;;;;5035182;28;20216;-79
2022/04/12 09:12:13;;;;;;;0.90;0.70;;;23.00;51.80;;;;;;5035393;28;20227;-80
2022/04/12 09:14:41;;;;;;;0.60;0.60;;;23.40;52.30;;;;;;5035643;28;20210;-80
2022/04/12 09:17:10;;;;;;;0.40;0.40;;;23.80;51.80;;;;;;5035357;28;20191;-79
2022/04/12 09:19:48;;;;;;;0.68;0.60;;;24.20;49.90;;;;;;5035006;28;20676;-79
2022/04/12 09:22:17;;;;;;;0.60;0.60;;;24.60;49.50;;;;;;5035000;28;20242;-80
2022/04/12 09:24:47;;;;;;;1.15;0.50;;;24.80;46.80;;;;;;5034922;28;20226;-80
2022/04/12 09:27:15;;;;;;;1.52;0.55;;;25.30;46.40;;;;;;5035004;28;20215;-80
2022/04/12 09:29:47;;;;;;;0.82;0.60;;;26.00;46.40;;;;;;5034943;28;20254;-80
2022/04/12 09:32:15;;;;;;;0.60;0.60;;;26.70;46.00;;;;;;5034704;28;20761;-80
2022/04/12 09:34:43;;;;;;;0.82;0.57;;;27.40;44.90;;;;;;5035001;28;20209;-80
2022/04/12 09:37:25;;;;;;;0.70;0.63;;;27.90;41.10;;;;;;5034687;28;20666;-80
2022/04/12 09:40:05;;;;;;;0.60;0.60;;;27.20;42.60;;;;;;5034632;28;20180;-80
2022/04/12 09:42:44;;;;;;;0.80;0.50;;;27.20;41.10;;;;;;5034972;28;20250;-80
2022/04/12 09:45:12;;;;;;;0.70;0.50;;;26.70;39.20;;;;;;5034939;28;20183;-80
2022/04/12 09:47:40;;;;;;;0.50;0.50;;;26.90;40.00;;;;;;5034814;28;20199;-80
2022/04/12 09:50:09;;;;;;;0.77;0.63;;;27.00;40.20;;;;;;5033500;28;20667;-80
2022/04/12 09:52:35;;;;;;;0.40;0.40;;;27.40;38.80;;;;;;5034451;28;20668;-80
2022/04/12 09:55:06;;;;;;;0.60;0.57;;;27.50;38.10;;;;;;5034670;28;20674;-80
2022/04/12 09:57:34;;;;;;;0.40;0.40;;;27.80;38.20;;;;;;5034734;28;20209;-80
2022/04/12 10:00:01;;;;;;;1.30;0.70;;;28.10;37.70;;;;;;5034520;28;20207;-80
2022/04/12 10:02:28;;;;;;;0.43;0.43;;;28.10;36.20;;;;;;5032402;28;20295;-80
2022/04/12 10:04:56;;;;;;;0.60;0.50;;;27.30;36.80;;;;;;5034016;28;20199;-80
2022/04/12 10:07:24;;;;;;;0.50;0.43;;;26.30;36.50;;;;;;5032824;28;20207;-80
2022/04/12 10:09:53;;;;;;;0.52;0.52;;;25.80;38.60;;;;;;5033089;28;20229;-80
2022/04/12 10:12:21;;;;;;;0.70;0.70;;;25.30;39.00;;;;;;5034125;28;20685;-80
2022/04/12 10:14:49;;;;;;;0.40;0.40;;;25.10;39.60;;;;;;5034219;28;20207;-80
2022/04/12 10:17:16;;;;;;;0.50;0.50;;;25.20;40.00;;;;;;5034360;28;20210;-80
2022/04/12 10:19:43;;;;;;;1.73;0.40;;;25.20;39.70;;;;;;5034260;28;20642;-80
2022/04/12 10:22:10;;;;;;;0.43;0.43;;;24.60;39.30;;;;;;5033811;28;20741;-80
2022/04/12 10:24:38;;;;;;;0.98;0.50;;;24.30;40.40;;;;;;5034244;28;20204;-80
2022/04/12 10:27:06;;;;;;;0.90;0.70;;;24.10;41.70;;;;;;5034202;28;20259;-80
2022/04/12 10:29:34;;;;;;;0.45;0.45;;;24.10;41.30;;;;;;5034070;28;20223;-80
2022/04/12 10:32:03;;;;;;;0.73;0.50;;;24.60;41.20;;;;;;5034316;28;20234;-80
2022/04/12 10:34:30;;;;;;;0.50;0.50;;;25.20;41.60;;;;;;5033936;28;20214;-80
2022/04/12 10:37:04;;;;;;;0.57;0.40;;;25.60;40.00;;;;;;5033659;28;20581;-80
2022/04/12 10:39:35;;;;;;;0.70;0.70;;;26.30;39.70;;;;;;5033997;28;20182;-80
2022/04/12 10:42:04;;;;;;;0.50;0.50;;;27.00;39.30;;;;;;5033809;28;20591;-80
2022/04/12 10:44:41;;;;;;;0.52;0.50;;;27.60;39.40;;;;;;5033672;28;20349;-80
2022/04/12 10:47:27;;;;;;;2.97;0.50;;;27.10;38.80;;;;;;5033573;28;20194;-80
2022/04/12 10:49:59;;;;;;;0.50;0.50;;;26.80;38.30;;;;;;5033678;28;20211;-80
2022/04/12 10:52:43;;;;;;;0.47;0.47;;;27.20;38.40;;;;;;5033767;28;20192;-80
2022/04/12 10:55:13;;;;;;;0.98;0.40;;;27.50;37.50;;;;;;5033753;28;20191;-80
2022/04/12 10:57:40;;;;;;;0.80;0.60;;;27.70;36.60;;;;;;5033504;28;20210;-79
2022/04/12 11:00:13;;;;;;;0.40;0.40;;;27.80;37.50;;;;;;5033273;28;20553;-82
2022/04/12 11:02:42;;;;;;;0.90;0.50;;;28.00;36.20;;;;;;5033527;28;20192;-83
2022/04/12 11:06:01;;;;;;;2.47;0.45;;;27.70;37.40;;;;;;5033612;28;20184;-79
2022/04/12 11:08:47;;;;;;;0.32;0.32;;;27.00;37.40;;;;;;5033446;28;20225;-80
2022/04/12 11:11:27;;;;;;;0.55;0.50;;;26.50;37.40;;;;;;5033404;28;20227;-80
2022/04/12 11:13:54;;;;;;;0.50;0.40;;;26.00;38.60;;;;;;5033184;28;20188;-80
2022/04/12 11:16:27;;;;;;;0.40;0.40;;;25.30;39.10;;;;;;5033438;28;20188;-80
2022/04/12 11:18:55;;;;;;;0.40;0.40;;;24.70;39.70;;;;;;5033445;28;20234;-80
2022/04/12 11:21:23;;;;;;;0.40;0.40;;;24.30;40.70;;;;;;5033281;28;20250;-80
2022/04/12 11:23:51;;;;;;;0.50;0.45;;;24.20;39.70;;;;;;5033350;28;20538;-80
2022/04/12 11:26:36;;;;;;;0.40;0.30;;;24.00;40.00;;;;;;5033340;28;20207;-80
2022/04/12 11:29:06;;;;;;;0.93;0.40;;;23.90;40.80;;;;;;5032983;28;20265;-80
2022/04/12 11:31:36;;;;;;;0.45;0.45;;;23.90;40.40;;;;;;5033196;28;20226;-80
2022/04/12 11:34:03;;;;;;;0.50;0.50;;;23.60;41.60;;;;;;5033726;28;20211;-80
2022/04/12 11:36:30;;;;;;;0.40;0.35;;;23.60;41.70;;;;;;5033119;28;20293;-80
2022/04/12 11:38:57;;;;;;;0.50;0.50;;;23.50;41.70;;;;;;5033232;28;20183;-80
2022/04/12 11:41:24;;;;;;;0.63;0.63;;;23.40;42.00;;;;;;5032968;28;20211;-80
2022/04/12 11:43:59;;;;;;;1.23;0.53;;;23.20;42.00;;;;;;5032866;28;20235;-80
2022/04/12 11:46:26;;;;;;;0.40;0.40;;;23.20;41.70;;;;;;5032924;28;20183;-80
2022/04/12 11:49:04;;;;;;;0.40;0.40;;;23.10;42.10;;;;;;5032966;28;20203;-80
2022/04/12 11:51:31;;;;;;;0.40;0.40;;;23.00;42.40;;;;;;5033062;28;20280;-80
2022/04/12 11:53:58;;;;;;;0.50;0.50;;;23.00;42.90;;;;;;5032753;28;20457;-80
2022/04/12 11:56:28;;;;;;;0.60;0.40;;;22.70;42.50;;;;;;5032801;28;20446;-80
2022/04/12 11:58:55;;;;;;;0.43;0.43;;;22.50;42.60;;;;;;5033062;28;20430;-80
2022/04/12 12:01:30;;;;;;;1.23;0.47;;;22.50;43.10;;;;;;5032811;28;20831;-80
2022/04/12 12:04:07;;;;;;;0.40;0.40;;;22.40;42.90;;;;;;5033039;28;20434;-80
2022/04/12 12:06:33;;;;;;;0.77;0.40;;;22.40;43.40;;;;;;5033005;28;20422;-80
2022/04/12 12:09:02;;;;;;;0.50;0.40;;;22.50;44.30;;;;;;5032518;28;20457;-80
2022/04/12 12:11:28;;;;;;;0.50;0.50;;;22.40;44.20;;;;;;5032463;28;20470;-80
2022/04/12 12:13:58;;;;;;;0.80;0.50;;;22.40;43.30;;;;;;5035288;28;20819;-80
2022/04/12 12:16:25;;;;;;;0.40;0.40;;;22.50;43.70;;;;;;5036901;28;20459;-80
2022/04/12 12:18:52;;;;;;;0.53;0.50;;;22.50;43.60;;;;;;5036617;28;20460;-80
2022/04/12 12:21:20;;;;;;;1.53;0.50;;;22.50;44.90;;;;;;5036541;28;20477;-80
2022/04/12 12:23:47;;;;;;;0.50;0.40;;;22.40;45.40;;;;;;5036121;28;20541;-80
2022/04/12 12:26:28;;;;;;;0.80;0.50;;;22.30;44.20;;;;;;5036468;28;20497;-80
2022/04/12 12:28:57;;;;;;;0.50;0.50;;;22.30;44.10;;;;;;5036949;28;20445;-80
2022/04/12 12:31:25;;;;;;;0.57;0.57;;;22.20;44.30;;;;;;5036283;28;20474;-80
2022/04/12 12:33:52;;;;;;;0.40;0.37;;;22.10;44.50;;;;;;5036088;28;20439;-80
2022/04/12 12:36:22;;;;;;;0.80;0.43;;;22.30;43.80;;;;;;5036256;28;20434;-80
2022/04/12 12:38:49;;;;;;;1.73;0.50;;;22.30;44.40;;;;;;5036149;28;20446;-80
2022/04/12 12:41:25;;;;;;;0.40;0.40;;;22.10;44.00;;;;;;5036094;28;20470;-80
2022/04/12 12:43:54;;;;;;;0.50;0.40;;;22.20;44.00;;;;;;5035838;28;20485;-80
2022/04/12 12:46:24;;;;;;;0.50;0.50;;;22.30;44.70;;;;;;5035957;28;20435;-80
2022/04/12 12:49:06;;;;;;;0.50;0.50;;;22.20;44.20;;;;;;5035971;28;20457;-80
2022/04/12 12:51:35;;;;;;;0.40;0.30;;;22.10;44.40;;;;;;5036220;28;20474;-80
2022/04/12 12:54:03;;;;;;;0.40;0.40;;;22.00;44.20;;;;;;5035726;28;20411;-80
2022/04/12 12:56:33;;;;;;;0.63;0.50;;;22.00;44.50;;;;;;5035825;28;20454;-80
2022/04/12 12:59:17;;;;;;;1.00;0.50;;;22.10;44.60;;;;;;5036150;28;20473;-80
2022/04/12 13:01:45;;;;;;;0.70;0.60;;;22.10;43.80;;;;;;5035410;28;20465;-80